sensor_id;sensor_type;location;lat;lon;timestamp;temperature;humidity
17994;DHT22;9122;48.406;9.984;2022-10-16T00:01:10;16.80;97.10
17994;DHT22;9122;48.406;9.984;2022-10-16T00:03:56;16.80;97.20
17994;DHT22;9122;48.406;9.984;2022-10-16T00:06:41;16.70;97.10
17994;DHT22;9122;48.406;9.984;2022-10-16T00:09:25;16.70;97.10
17994;DHT22;9122;48.406;9.984;2022-10-16T00:12:09;16.70;97.20
17994;DHT22;9122;48.406;9.984;2022-10-16T00:14:53;16.70;97.20
17994;DHT22;9122;48.406;9.984;2022-10-16T00:17:38;16.70;97.20
17994;DHT22;9122;48.406;9.984;2022-10-16T00:20:22;16.70;97.20
17994;DHT22;9122;48.406;9.984;2022-10-16T00:23:06;16.70;97.20
17994;DHT22;9122;48.406;9.984;2022-10-16T00:25:59;16.70;97.20
17994;DHT22;9122;48.406;9.984;2022-10-16T00:28:51;16.70;97.30
17994;DHT22;9122;48.406;9.984;2022-10-16T00:31:35;16.70;97.30
17994;DHT22;9122;48.406;9.984;2022-10-16T00:34:20;16.70;97.30
17994;DHT22;9122;48.406;9.984;2022-10-16T00:37:04;16.60;97.30
17994;DHT22;9122;48.406;9.984;2022-10-16T00:39:49;16.60;97.40
17994;DHT22;9122;48.406;9.984;2022-10-16T00:42:34;16.60;97.40
17994;DHT22;9122;48.406;9.984;2022-10-16T00:45:18;16.60;97.40
17994;DHT22;9122;48.406;9.984;2022-10-16T00:48:02;16.60;97.30
17994;DHT22;9122;48.406;9.984;2022-10-16T00:50:47;16.60;97.40
17994;DHT22;9122;48.406;9.984;2022-10-16T00:53:31;16.60;97.40
17994;DHT22;9122;48.406;9.984;2022-10-16T00:56:16;16.60;97.40
17994;DHT22;9122;48.406;9.984;2022-10-16T00:59:10;16.50;97.40
17994;DHT22;9122;48.406;9.984;2022-10-16T01:01:56;16.50;97.40
17994;DHT22;9122;48.406;9.984;2022-10-16T01:04:47;16.50;97.50
17994;DHT22;9122;48.406;9.984;2022-10-16T01:07:42;16.50;97.50
17994;DHT22;9122;48.406;9.984;2022-10-16T01:13:38;16.40;97.50
17994;DHT22;9122;48.406;9.984;2022-10-16T01:19:44;16.40;97.60
17994;DHT22;9122;48.406;9.984;2022-10-16T01:28:52;16.30;97.60
17994;DHT22;9122;48.406;9.984;2022-10-16T01:31:41;16.30;97.70
17994;DHT22;9122;48.406;9.984;2022-10-16T01:34:38;16.30;97.70
17994;DHT22;9122;48.406;9.984;2022-10-16T01:37:36;16.30;97.80
17994;DHT22;9122;48.406;9.984;2022-10-16T01:40:24;16.30;97.80
17994;DHT22;9122;48.406;9.984;2022-10-16T01:43:13;16.20;97.80
17994;DHT22;9122;48.406;9.984;2022-10-16T01:45:59;16.20;97.80
17994;DHT22;9122;48.406;9.984;2022-10-16T01:48:45;16.20;97.90
17994;DHT22;9122;48.406;9.984;2022-10-16T01:51:30;16.20;97.90
17994;DHT22;9122;48.406;9.984;2022-10-16T01:54:16;16.20;97.90
17994;DHT22;9122;48.406;9.984;2022-10-16T01:57:05;16.20;97.90
17994;DHT22;9122;48.406;9.984;2022-10-16T01:59:54;16.20;97.90
17994;DHT22;9122;48.406;9.984;2022-10-16T02:02:44;16.20;97.90
17994;DHT22;9122;48.406;9.984;2022-10-16T02:05:51;16.20;98.00
17994;DHT22;9122;48.406;9.984;2022-10-16T02:08:37;16.10;98.00
17994;DHT22;9122;48.406;9.984;2022-10-16T02:11:23;16.10;98.00
17994;DHT22;9122;48.406;9.984;2022-10-16T02:14:08;16.10;98.10
17994;DHT22;9122;48.406;9.984;2022-10-16T02:16:52;16.10;98.00
17994;DHT22;9122;48.406;9.984;2022-10-16T02:19:37;16.10;98.10
17994;DHT22;9122;48.406;9.984;2022-10-16T02:22:27;16.10;98.00
17994;DHT22;9122;48.406;9.984;2022-10-16T02:25:15;16.10;98.10
17994;DHT22;9122;48.406;9.984;2022-10-16T02:28:18;16.10;98.10
17994;DHT22;9122;48.406;9.984;2022-10-16T02:31:06;16.10;98.10
17994;DHT22;9122;48.406;9.984;2022-10-16T02:33:53;16.10;98.10
17994;DHT22;9122;48.406;9.984;2022-10-16T02:36:40;16.10;98.20
17994;DHT22;9122;48.406;9.984;2022-10-16T02:39:27;16.00;98.20
17994;DHT22;9122;48.406;9.984;2022-10-16T02:42:13;16.10;98.20
17994;DHT22;9122;48.406;9.984;2022-10-16T02:44:58;16.00;98.20
17994;DHT22;9122;48.406;9.984;2022-10-16T02:47:42;16.00;98.20
17994;DHT22;9122;48.406;9.984;2022-10-16T02:50:27;16.00;98.30
17994;DHT22;9122;48.406;9.984;2022-10-16T02:53:12;16.00;98.20
17994;DHT22;9122;48.406;9.984;2022-10-16T02:55:56;16.00;98.30
17994;DHT22;9122;48.406;9.984;2022-10-16T02:58:40;16.00;98.30
17994;DHT22;9122;48.406;9.984;2022-10-16T03:01:25;16.00;98.30
17994;DHT22;9122;48.406;9.984;2022-10-16T03:04:09;16.00;98.30
17994;DHT22;9122;48.406;9.984;2022-10-16T03:06:54;16.00;98.30
17994;DHT22;9122;48.406;9.984;2022-10-16T03:09:38;16.00;98.30
17994;DHT22;9122;48.406;9.984;2022-10-16T03:12:23;16.00;98.30
17994;DHT22;9122;48.406;9.984;2022-10-16T03:15:07;15.90;98.30
17994;DHT22;9122;48.406;9.984;2022-10-16T03:17:52;15.90;98.40
17994;DHT22;9122;48.406;9.984;2022-10-16T03:20:36;15.90;98.50
17994;DHT22;9122;48.406;9.984;2022-10-16T03:23:20;15.90;98.50
17994;DHT22;9122;48.406;9.984;2022-10-16T03:26:05;15.90;98.50
17994;DHT22;9122;48.406;9.984;2022-10-16T03:28:49;16.00;98.50
17994;DHT22;9122;48.406;9.984;2022-10-16T03:31:34;15.90;98.70
17994;DHT22;9122;48.406;9.984;2022-10-16T03:34:18;15.90;98.40
17994;DHT22;9122;48.406;9.984;2022-10-16T03:37:02;15.90;98.40
17994;DHT22;9122;48.406;9.984;2022-10-16T03:39:47;15.90;98.40
17994;DHT22;9122;48.406;9.984;2022-10-16T03:42:31;15.90;98.40
17994;DHT22;9122;48.406;9.984;2022-10-16T03:45:15;15.90;98.50
17994;DHT22;9122;48.406;9.984;2022-10-16T03:47:59;15.90;98.50
17994;DHT22;9122;48.406;9.984;2022-10-16T03:50:44;15.80;98.40
17994;DHT22;9122;48.406;9.984;2022-10-16T03:53:30;15.80;98.40
17994;DHT22;9122;48.406;9.984;2022-10-16T03:56:14;15.80;98.40
17994;DHT22;9122;48.406;9.984;2022-10-16T03:58:58;15.80;98.40
17994;DHT22;9122;48.406;9.984;2022-10-16T04:01:42;15.80;98.40
17994;DHT22;9122;48.406;9.984;2022-10-16T04:04:27;15.80;98.40
17994;DHT22;9122;48.406;9.984;2022-10-16T04:07:11;15.80;98.50
17994;DHT22;9122;48.406;9.984;2022-10-16T04:09:56;15.70;98.50
17994;DHT22;9122;48.406;9.984;2022-10-16T04:12:42;15.70;98.50
17994;DHT22;9122;48.406;9.984;2022-10-16T04:15:26;15.70;98.50
17994;DHT22;9122;48.406;9.984;2022-10-16T04:18:11;15.80;98.50
17994;DHT22;9122;48.406;9.984;2022-10-16T04:20:55;15.70;98.40
17994;DHT22;9122;48.406;9.984;2022-10-16T04:23:39;15.70;98.50
17994;DHT22;9122;48.406;9.984;2022-10-16T04:26:24;15.70;98.50
17994;DHT22;9122;48.406;9.984;2022-10-16T04:29:08;15.70;98.40
17994;DHT22;9122;48.406;9.984;2022-10-16T04:31:52;15.70;98.40
17994;DHT22;9122;48.406;9.984;2022-10-16T04:34:38;15.70;98.40
17994;DHT22;9122;48.406;9.984;2022-10-16T04:37:24;15.70;98.50
17994;DHT22;9122;48.406;9.984;2022-10-16T04:40:09;15.60;98.50
17994;DHT22;9122;48.406;9.984;2022-10-16T04:42:54;15.60;98.50
17994;DHT22;9122;48.406;9.984;2022-10-16T04:45:38;15.60;98.50
17994;DHT22;9122;48.406;9.984;2022-10-16T04:48:23;15.60;98.50
17994;DHT22;9122;48.406;9.984;2022-10-16T04:51:07;15.60;98.50
17994;DHT22;9122;48.406;9.984;2022-10-16T04:53:52;15.60;98.50
17994;DHT22;9122;48.406;9.984;2022-10-16T04:56:37;15.60;98.60
17994;DHT22;9122;48.406;9.984;2022-10-16T04:59:27;15.60;98.60
17994;DHT22;9122;48.406;9.984;2022-10-16T05:02:11;15.60;98.60
17994;DHT22;9122;48.406;9.984;2022-10-16T05:04:56;15.60;98.60
17994;DHT22;9122;48.406;9.984;2022-10-16T05:07:40;15.70;98.70
17994;DHT22;9122;48.406;9.984;2022-10-16T05:10:24;15.50;98.60
17994;DHT22;9122;48.406;9.984;2022-10-16T05:13:10;15.50;98.60
17994;DHT22;9122;48.406;9.984;2022-10-16T05:15:54;15.50;98.60
17994;DHT22;9122;48.406;9.984;2022-10-16T05:18:38;15.50;98.70
17994;DHT22;9122;48.406;9.984;2022-10-16T05:21:23;15.50;98.70
17994;DHT22;9122;48.406;9.984;2022-10-16T05:24:08;15.50;98.70
17994;DHT22;9122;48.406;9.984;2022-10-16T05:26:53;15.40;98.70
17994;DHT22;9122;48.406;9.984;2022-10-16T05:29:37;15.40;98.80
17994;DHT22;9122;48.406;9.984;2022-10-16T05:32:21;15.40;98.80
17994;DHT22;9122;48.406;9.984;2022-10-16T05:35:06;15.40;98.80
17994;DHT22;9122;48.406;9.984;2022-10-16T05:37:51;15.40;98.80
17994;DHT22;9122;48.406;9.984;2022-10-16T05:40:36;15.40;98.90
17994;DHT22;9122;48.406;9.984;2022-10-16T05:43:21;15.40;98.90
17994;DHT22;9122;48.406;9.984;2022-10-16T05:46:06;15.40;99.00
17994;DHT22;9122;48.406;9.984;2022-10-16T05:48:52;15.40;99.00
17994;DHT22;9122;48.406;9.984;2022-10-16T05:51:37;15.40;99.00
17994;DHT22;9122;48.406;9.984;2022-10-16T05:54:21;15.40;98.90
17994;DHT22;9122;48.406;9.984;2022-10-16T05:57:05;15.40;99.00
17994;DHT22;9122;48.406;9.984;2022-10-16T05:59:50;15.40;99.00
17994;DHT22;9122;48.406;9.984;2022-10-16T06:02:34;15.40;99.00
17994;DHT22;9122;48.406;9.984;2022-10-16T06:05:18;15.40;99.00
17994;DHT22;9122;48.406;9.984;2022-10-16T06:08:02;15.40;99.00
17994;DHT22;9122;48.406;9.984;2022-10-16T06:10:47;15.40;99.00
17994;DHT22;9122;48.406;9.984;2022-10-16T06:13:32;15.40;99.10
17994;DHT22;9122;48.406;9.984;2022-10-16T06:16:16;15.40;99.10
17994;DHT22;9122;48.406;9.984;2022-10-16T06:19:02;15.40;99.10
17994;DHT22;9122;48.406;9.984;2022-10-16T06:21:48;15.40;99.10
17994;DHT22;9122;48.406;9.984;2022-10-16T06:24:32;15.40;99.20
17994;DHT22;9122;48.406;9.984;2022-10-16T06:27:16;15.40;99.10
17994;DHT22;9122;48.406;9.984;2022-10-16T06:30:01;15.40;99.10
17994;DHT22;9122;48.406;9.984;2022-10-16T06:32:47;15.40;99.20
17994;DHT22;9122;48.406;9.984;2022-10-16T06:35:32;15.40;99.20
17994;DHT22;9122;48.406;9.984;2022-10-16T06:38:17;15.40;99.20
17994;DHT22;9122;48.406;9.984;2022-10-16T06:41:02;15.40;99.20
17994;DHT22;9122;48.406;9.984;2022-10-16T06:43:47;15.40;99.20
17994;DHT22;9122;48.406;9.984;2022-10-16T06:46:31;15.50;99.20
17994;DHT22;9122;48.406;9.984;2022-10-16T06:49:16;15.50;99.20
17994;DHT22;9122;48.406;9.984;2022-10-16T06:52:05;15.50;99.20
17994;DHT22;9122;48.406;9.984;2022-10-16T06:54:50;15.50;99.20
17994;DHT22;9122;48.406;9.984;2022-10-16T06:57:34;15.60;99.20
17994;DHT22;9122;48.406;9.984;2022-10-16T07:00:18;15.60;99.20
17994;DHT22;9122;48.406;9.984;2022-10-16T07:03:03;15.60;99.10
17994;DHT22;9122;48.406;9.984;2022-10-16T07:05:47;15.60;99.10
17994;DHT22;9122;48.406;9.984;2022-10-16T07:08:33;15.60;99.50
17994;DHT22;9122;48.406;9.984;2022-10-16T07:11:19;15.60;99.10
17994;DHT22;9122;48.406;9.984;2022-10-16T07:14:04;15.60;99.20
17994;DHT22;9122;48.406;9.984;2022-10-16T07:16:49;15.70;99.20
17994;DHT22;9122;48.406;9.984;2022-10-16T07:19:34;15.70;99.20
17994;DHT22;9122;48.406;9.984;2022-10-16T07:22:18;15.70;99.20
17994;DHT22;9122;48.406;9.984;2022-10-16T07:25:02;15.70;99.10
17994;DHT22;9122;48.406;9.984;2022-10-16T07:27:47;15.70;99.10
17994;DHT22;9122;48.406;9.984;2022-10-16T07:30:35;15.70;99.10
17994;DHT22;9122;48.406;9.984;2022-10-16T07:33:21;15.80;99.10
17994;DHT22;9122;48.406;9.984;2022-10-16T07:36:06;15.80;99.00
17994;DHT22;9122;48.406;9.984;2022-10-16T07:38:50;15.80;99.00
17994;DHT22;9122;48.406;9.984;2022-10-16T07:41:35;15.80;99.00
17994;DHT22;9122;48.406;9.984;2022-10-16T07:44:21;15.80;98.90
17994;DHT22;9122;48.406;9.984;2022-10-16T07:47:06;15.80;98.90
17994;DHT22;9122;48.406;9.984;2022-10-16T07:49:50;15.80;98.90
17994;DHT22;9122;48.406;9.984;2022-10-16T07:52:35;15.80;98.90
17994;DHT22;9122;48.406;9.984;2022-10-16T07:55:20;15.80;98.90
17994;DHT22;9122;48.406;9.984;2022-10-16T07:58:04;15.80;98.90
17994;DHT22;9122;48.406;9.984;2022-10-16T08:00:49;15.80;98.90
17994;DHT22;9122;48.406;9.984;2022-10-16T08:03:34;15.80;98.90
17994;DHT22;9122;48.406;9.984;2022-10-16T08:06:20;15.80;98.90
17994;DHT22;9122;48.406;9.984;2022-10-16T08:09:05;15.90;99.00
17994;DHT22;9122;48.406;9.984;2022-10-16T08:11:50;15.90;99.00
17994;DHT22;9122;48.406;9.984;2022-10-16T08:14:36;15.90;99.00
17994;DHT22;9122;48.406;9.984;2022-10-16T08:17:20;15.90;99.00
17994;DHT22;9122;48.406;9.984;2022-10-16T08:20:05;15.90;99.00
17994;DHT22;9122;48.406;9.984;2022-10-16T08:22:50;15.90;99.00
17994;DHT22;9122;48.406;9.984;2022-10-16T08:25:35;15.90;99.10
17994;DHT22;9122;48.406;9.984;2022-10-16T08:28:20;15.90;99.10
17994;DHT22;9122;48.406;9.984;2022-10-16T08:31:13;15.90;99.10
17994;DHT22;9122;48.406;9.984;2022-10-16T08:33:58;16.00;99.10
17994;DHT22;9122;48.406;9.984;2022-10-16T08:36:42;16.00;99.10
17994;DHT22;9122;48.406;9.984;2022-10-16T08:39:27;16.00;99.40
17994;DHT22;9122;48.406;9.984;2022-10-16T08:45:30;16.00;99.10
17994;DHT22;9122;48.406;9.984;2022-10-16T08:51:03;16.10;99.00
17994;DHT22;9122;48.406;9.984;2022-10-16T08:53:52;16.10;99.00
17994;DHT22;9122;48.406;9.984;2022-10-16T08:56:38;16.10;99.10
17994;DHT22;9122;48.406;9.984;2022-10-16T08:59:22;16.10;99.10
17994;DHT22;9122;48.406;9.984;2022-10-16T09:02:31;16.10;99.10
17994;DHT22;9122;48.406;9.984;2022-10-16T09:05:37;16.20;99.10
17994;DHT22;9122;48.406;9.984;2022-10-16T09:14:30;16.20;99.10
17994;DHT22;9122;48.406;9.984;2022-10-16T09:20:26;16.30;99.00
17994;DHT22;9122;48.406;9.984;2022-10-16T09:26:02;16.30;98.90
17994;DHT22;9122;48.406;9.984;2022-10-16T09:28:47;16.40;98.90
17994;DHT22;9122;48.406;9.984;2022-10-16T09:31:36;16.40;98.90
17994;DHT22;9122;48.406;9.984;2022-10-16T09:34:32;16.40;98.80
17994;DHT22;9122;48.406;9.984;2022-10-16T09:37:20;16.50;98.70
17994;DHT22;9122;48.406;9.984;2022-10-16T09:40:06;16.40;98.70
17994;DHT22;9122;48.406;9.984;2022-10-16T09:43:03;16.50;98.70
17994;DHT22;9122;48.406;9.984;2022-10-16T09:45:59;16.50;98.60
17994;DHT22;9122;48.406;9.984;2022-10-16T09:48:47;16.50;98.60
17994;DHT22;9122;48.406;9.984;2022-10-16T09:51:36;16.60;98.70
17994;DHT22;9122;48.406;9.984;2022-10-16T09:54:21;16.70;98.70
17994;DHT22;9122;48.406;9.984;2022-10-16T09:57:07;16.70;98.90
17994;DHT22;9122;48.406;9.984;2022-10-16T09:59:56;16.80;98.50
17994;DHT22;9122;48.406;9.984;2022-10-16T10:02:44;16.90;98.40
17994;DHT22;9122;48.406;9.984;2022-10-16T10:05:29;17.00;98.20
17994;DHT22;9122;48.406;9.984;2022-10-16T10:08:15;17.10;98.10
17994;DHT22;9122;48.406;9.984;2022-10-16T10:11:01;17.10;98.00
17994;DHT22;9122;48.406;9.984;2022-10-16T10:13:46;17.10;97.90
17994;DHT22;9122;48.406;9.984;2022-10-16T10:16:31;17.10;97.80
17994;DHT22;9122;48.406;9.984;2022-10-16T10:19:21;17.20;97.70
17994;DHT22;9122;48.406;9.984;2022-10-16T10:26:22;17.30;97.70
17994;DHT22;9122;48.406;9.984;2022-10-16T10:29:28;17.30;97.60
17994;DHT22;9122;48.406;9.984;2022-10-16T10:32:20;17.40;97.50
17994;DHT22;9122;48.406;9.984;2022-10-16T10:35:18;17.40;97.20
17994;DHT22;9122;48.406;9.984;2022-10-16T10:38:36;17.40;97.10
17994;DHT22;9122;48.406;9.984;2022-10-16T10:50:14;17.60;96.90
17994;DHT22;9122;48.406;9.984;2022-10-16T11:02:32;17.70;96.40
17994;DHT22;9122;48.406;9.984;2022-10-16T11:11:03;17.70;96.20
17994;DHT22;9122;48.406;9.984;2022-10-16T11:14:18;17.70;96.10
17994;DHT22;9122;48.406;9.984;2022-10-16T11:17:23;17.80;96.10
17994;DHT22;9122;48.406;9.984;2022-10-16T11:20:29;17.80;96.00
17994;DHT22;9122;48.406;9.984;2022-10-16T11:23:40;17.90;95.90
17994;DHT22;9122;48.406;9.984;2022-10-16T11:26:30;17.90;95.70
17994;DHT22;9122;48.406;9.984;2022-10-16T11:29:23;17.90;95.60
17994;DHT22;9122;48.406;9.984;2022-10-16T11:32:20;18.00;95.60
17994;DHT22;9122;48.406;9.984;2022-10-16T11:35:19;18.00;95.70
17994;DHT22;9122;48.406;9.984;2022-10-16T11:38:39;18.00;95.60
17994;DHT22;9122;48.406;9.984;2022-10-16T11:41:36;18.10;95.70
17994;DHT22;9122;48.406;9.984;2022-10-16T11:47:51;18.20;95.90
17994;DHT22;9122;48.406;9.984;2022-10-16T11:50:52;18.30;95.80
17994;DHT22;9122;48.406;9.984;2022-10-16T11:56:43;18.40;95.70
17994;DHT22;9122;48.406;9.984;2022-10-16T11:59:58;18.50;95.50
17994;DHT22;9122;48.406;9.984;2022-10-16T12:02:56;18.60;95.40
17994;DHT22;9122;48.406;9.984;2022-10-16T12:06:06;18.70;95.20
17994;DHT22;9122;48.406;9.984;2022-10-16T12:08:55;18.80;95.00
17994;DHT22;9122;48.406;9.984;2022-10-16T12:11:40;18.90;94.90
17994;DHT22;9122;48.406;9.984;2022-10-16T12:14:40;18.90;94.90
17994;DHT22;9122;48.406;9.984;2022-10-16T12:17:34;19.00;94.70
17994;DHT22;9122;48.406;9.984;2022-10-16T12:20:32;19.10;94.60
17994;DHT22;9122;48.406;9.984;2022-10-16T12:23:20;19.20;94.40
17994;DHT22;9122;48.406;9.984;2022-10-16T12:26:10;19.30;94.20
17994;DHT22;9122;48.406;9.984;2022-10-16T12:29:12;19.30;94.10
17994;DHT22;9122;48.406;9.984;2022-10-16T12:31:57;19.40;93.90
17994;DHT22;9122;48.406;9.984;2022-10-16T12:34:43;19.50;93.90
17994;DHT22;9122;48.406;9.984;2022-10-16T12:37:34;19.50;93.70
17994;DHT22;9122;48.406;9.984;2022-10-16T12:40:26;19.60;93.70
17994;DHT22;9122;48.406;9.984;2022-10-16T12:51:56;19.80;93.30
17994;DHT22;9122;48.406;9.984;2022-10-16T12:54:41;19.80;92.80
17994;DHT22;9122;48.406;9.984;2022-10-16T13:00:44;19.90;92.20
17994;DHT22;9122;48.406;9.984;2022-10-16T13:06:53;19.90;92.50
17994;DHT22;9122;48.406;9.984;2022-10-16T13:12:46;20.00;92.00
17994;DHT22;9122;48.406;9.984;2022-10-16T13:19:09;20.10;91.90
17994;DHT22;9122;48.406;9.984;2022-10-16T13:25:40;20.20;91.30
17994;DHT22;9122;48.406;9.984;2022-10-16T13:28:06;20.20;91.30
17994;DHT22;9122;48.406;9.984;2022-10-16T13:30:53;20.30;91.00
17994;DHT22;9122;48.406;9.984;2022-10-16T13:33:43;20.30;90.80
17994;DHT22;9122;48.406;9.984;2022-10-16T13:36:35;20.40;90.70
17994;DHT22;9122;48.406;9.984;2022-10-16T13:39:28;20.40;90.40
17994;DHT22;9122;48.406;9.984;2022-10-16T13:42:25;20.40;90.30
17994;DHT22;9122;48.406;9.984;2022-10-16T13:45:22;20.40;90.20
17994;DHT22;9122;48.406;9.984;2022-10-16T13:48:09;20.50;90.00
17994;DHT22;9122;48.406;9.984;2022-10-16T13:51:04;20.50;89.90
17994;DHT22;9122;48.406;9.984;2022-10-16T13:53:49;20.50;89.40
17994;DHT22;9122;48.406;9.984;2022-10-16T13:56:33;20.60;89.10
17994;DHT22;9122;48.406;9.984;2022-10-16T13:59:27;20.60;89.00
17994;DHT22;9122;48.406;9.984;2022-10-16T14:02:42;20.60;89.50
17994;DHT22;9122;48.406;9.984;2022-10-16T14:05:26;20.60;88.80
17994;DHT22;9122;48.406;9.984;2022-10-16T14:08:11;20.60;88.00
17994;DHT22;9122;48.406;9.984;2022-10-16T14:10:58;20.60;88.30
17994;DHT22;9122;48.406;9.984;2022-10-16T14:13:44;20.60;88.50
17994;DHT22;9122;48.406;9.984;2022-10-16T14:16:30;20.60;88.90
17994;DHT22;9122;48.406;9.984;2022-10-16T14:19:22;20.60;89.20
17994;DHT22;9122;48.406;9.984;2022-10-16T14:31:00;20.70;87.10
17994;DHT22;9122;48.406;9.984;2022-10-16T14:33:45;20.70;86.60
17994;DHT22;9122;48.406;9.984;2022-10-16T14:36:30;20.80;86.20
17994;DHT22;9122;48.406;9.984;2022-10-16T14:39:19;20.80;85.80
17994;DHT22;9122;48.406;9.984;2022-10-16T14:42:04;20.80;85.90
17994;DHT22;9122;48.406;9.984;2022-10-16T14:44:48;20.80;85.70
17994;DHT22;9122;48.406;9.984;2022-10-16T14:47:49;20.90;84.30
17994;DHT22;9122;48.406;9.984;2022-10-16T14:50:34;20.90;84.30
17994;DHT22;9122;48.406;9.984;2022-10-16T14:53:19;20.90;84.30
17994;DHT22;9122;48.406;9.984;2022-10-16T14:56:31;20.90;84.30
17994;DHT22;9122;48.406;9.984;2022-10-16T15:02:35;20.90;84.20
17994;DHT22;9122;48.406;9.984;2022-10-16T15:05:21;21.00;83.70
17994;DHT22;9122;48.406;9.984;2022-10-16T15:08:07;20.90;83.20
17994;DHT22;9122;48.406;9.984;2022-10-16T15:10:51;20.90;82.70
17994;DHT22;9122;48.406;9.984;2022-10-16T15:13:38;20.90;83.10
17994;DHT22;9122;48.406;9.984;2022-10-16T15:16:23;20.90;83.20
17994;DHT22;9122;48.406;9.984;2022-10-16T15:19:22;20.90;83.00
17994;DHT22;9122;48.406;9.984;2022-10-16T15:22:10;20.90;83.10
17994;DHT22;9122;48.406;9.984;2022-10-16T15:24:54;20.90;83.00
17994;DHT22;9122;48.406;9.984;2022-10-16T15:27:38;20.90;83.00
17994;DHT22;9122;48.406;9.984;2022-10-16T15:30:30;20.90;83.40
17994;DHT22;9122;48.406;9.984;2022-10-16T15:33:21;20.90;83.70
17994;DHT22;9122;48.406;9.984;2022-10-16T15:36:07;20.90;83.00
17994;DHT22;9122;48.406;9.984;2022-10-16T15:38:51;20.90;83.20
17994;DHT22;9122;48.406;9.984;2022-10-16T15:41:36;20.90;83.80
17994;DHT22;9122;48.406;9.984;2022-10-16T15:44:22;20.90;84.30
17994;DHT22;9122;48.406;9.984;2022-10-16T15:47:08;20.90;85.10
17994;DHT22;9122;48.406;9.984;2022-10-16T15:49:53;20.90;85.60
17994;DHT22;9122;48.406;9.984;2022-10-16T15:52:37;20.90;86.00
17994;DHT22;9122;48.406;9.984;2022-10-16T15:55:23;20.90;86.50
17994;DHT22;9122;48.406;9.984;2022-10-16T15:58:08;20.90;86.80
17994;DHT22;9122;48.406;9.984;2022-10-16T16:01:00;20.90;87.30
17994;DHT22;9122;48.406;9.984;2022-10-16T16:03:45;20.90;87.40
17994;DHT22;9122;48.406;9.984;2022-10-16T16:06:29;20.90;87.70
17994;DHT22;9122;48.406;9.984;2022-10-16T16:09:14;20.80;87.90
17994;DHT22;9122;48.406;9.984;2022-10-16T16:11:59;20.80;88.20
17994;DHT22;9122;48.406;9.984;2022-10-16T16:14:44;20.80;88.60
17994;DHT22;9122;48.406;9.984;2022-10-16T16:17:33;20.80;89.00
17994;DHT22;9122;48.406;9.984;2022-10-16T16:20:18;20.80;89.20
17994;DHT22;9122;48.406;9.984;2022-10-16T16:23:03;20.80;89.20
17994;DHT22;9122;48.406;9.984;2022-10-16T16:26:05;20.80;89.50
17994;DHT22;9122;48.406;9.984;2022-10-16T16:28:50;20.80;89.40
17994;DHT22;9122;48.406;9.984;2022-10-16T16:31:35;20.70;89.40
17994;DHT22;9122;48.406;9.984;2022-10-16T16:34:20;20.70;89.80
17994;DHT22;9122;48.406;9.984;2022-10-16T16:37:05;20.70;90.00
17994;DHT22;9122;48.406;9.984;2022-10-16T16:39:49;20.70;90.00
17994;DHT22;9122;48.406;9.984;2022-10-16T16:42:34;20.70;90.10
17994;DHT22;9122;48.406;9.984;2022-10-16T16:45:19;20.60;90.30
17994;DHT22;9122;48.406;9.984;2022-10-16T16:48:03;20.60;90.80
17994;DHT22;9122;48.406;9.984;2022-10-16T16:50:49;20.60;90.70
17994;DHT22;9122;48.406;9.984;2022-10-16T16:53:35;20.60;90.90
17994;DHT22;9122;48.406;9.984;2022-10-16T16:56:20;20.50;91.10
17994;DHT22;9122;48.406;9.984;2022-10-16T16:59:05;20.60;91.00
17994;DHT22;9122;48.406;9.984;2022-10-16T17:01:49;20.50;91.10
17994;DHT22;9122;48.406;9.984;2022-10-16T17:04:36;20.50;91.20
17994;DHT22;9122;48.406;9.984;2022-10-16T17:07:21;20.50;91.40
17994;DHT22;9122;48.406;9.984;2022-10-16T17:10:06;20.50;91.50
17994;DHT22;9122;48.406;9.984;2022-10-16T17:12:50;20.40;91.60
17994;DHT22;9122;48.406;9.984;2022-10-16T17:15:34;20.40;91.60
17994;DHT22;9122;48.406;9.984;2022-10-16T17:18:20;20.40;91.60
17994;DHT22;9122;48.406;9.984;2022-10-16T17:21:08;20.40;91.70
17994;DHT22;9122;48.406;9.984;2022-10-16T17:23:53;20.30;91.80
17994;DHT22;9122;48.406;9.984;2022-10-16T17:26:37;20.30;91.80
17994;DHT22;9122;48.406;9.984;2022-10-16T17:29:27;20.30;91.80
17994;DHT22;9122;48.406;9.984;2022-10-16T17:32:11;20.30;91.90
17994;DHT22;9122;48.406;9.984;2022-10-16T17:34:58;20.30;92.30
17994;DHT22;9122;48.406;9.984;2022-10-16T17:37:43;20.20;91.90
17994;DHT22;9122;48.406;9.984;2022-10-16T17:40:27;20.20;92.00
17994;DHT22;9122;48.406;9.984;2022-10-16T17:43:11;20.20;92.10
17994;DHT22;9122;48.406;9.984;2022-10-16T17:45:56;20.10;92.20
17994;DHT22;9122;48.406;9.984;2022-10-16T17:48:42;20.10;92.40
17994;DHT22;9122;48.406;9.984;2022-10-16T17:51:30;20.00;92.40
17994;DHT22;9122;48.406;9.984;2022-10-16T17:54:26;20.00;92.40
17994;DHT22;9122;48.406;9.984;2022-10-16T17:57:11;18.70;92.30
17994;DHT22;9122;48.406;9.984;2022-10-16T17:59:56;20.00;92.70
17994;DHT22;9122;48.406;9.984;2022-10-16T18:02:40;19.90;92.50
17994;DHT22;9122;48.406;9.984;2022-10-16T18:05:25;19.90;92.70
17994;DHT22;9122;48.406;9.984;2022-10-16T18:08:10;19.80;92.70
17994;DHT22;9122;48.406;9.984;2022-10-16T18:10:56;19.80;92.90
17994;DHT22;9122;48.406;9.984;2022-10-16T18:13:41;19.70;92.90
17994;DHT22;9122;48.406;9.984;2022-10-16T18:16:27;19.70;93.00
17994;DHT22;9122;48.406;9.984;2022-10-16T18:19:12;19.60;93.10
17994;DHT22;9122;48.406;9.984;2022-10-16T18:21:56;19.60;93.00
17994;DHT22;9122;48.406;9.984;2022-10-16T18:24:44;19.50;93.00
17994;DHT22;9122;48.406;9.984;2022-10-16T18:27:29;19.50;93.10
17994;DHT22;9122;48.406;9.984;2022-10-16T18:30:22;19.50;93.10
17994;DHT22;9122;48.406;9.984;2022-10-16T18:33:18;19.40;93.30
17994;DHT22;9122;48.406;9.984;2022-10-16T18:36:07;19.40;93.30
17994;DHT22;9122;48.406;9.984;2022-10-16T18:38:52;19.40;93.40
17994;DHT22;9122;48.406;9.984;2022-10-16T18:41:39;19.30;93.40
17994;DHT22;9122;48.406;9.984;2022-10-16T18:44:25;19.30;93.40
17994;DHT22;9122;48.406;9.984;2022-10-16T18:47:12;19.00;93.30
17994;DHT22;9122;48.406;9.984;2022-10-16T18:50:07;19.40;93.30
17994;DHT22;9122;48.406;9.984;2022-10-16T18:52:55;20.40;94.00
17994;DHT22;9122;48.406;9.984;2022-10-16T18:55:43;19.10;93.80
17994;DHT22;9122;48.406;9.984;2022-10-16T18:58:34;19.00;93.60
17994;DHT22;9122;48.406;9.984;2022-10-16T19:01:23;19.00;93.70
17994;DHT22;9122;48.406;9.984;2022-10-16T19:04:13;19.00;93.60
17994;DHT22;9122;48.406;9.984;2022-10-16T19:06:58;18.90;93.60
17994;DHT22;9122;48.406;9.984;2022-10-16T19:09:42;18.90;93.60
17994;DHT22;9122;48.406;9.984;2022-10-16T19:12:27;18.90;93.70
17994;DHT22;9122;48.406;9.984;2022-10-16T19:15:12;18.80;93.70
17994;DHT22;9122;48.406;9.984;2022-10-16T19:17:57;18.80;93.90
17994;DHT22;9122;48.406;9.984;2022-10-16T19:20:41;18.80;94.00
17994;DHT22;9122;48.406;9.984;2022-10-16T19:23:25;18.70;93.80
17994;DHT22;9122;48.406;9.984;2022-10-16T19:26:13;18.70;93.70
17994;DHT22;9122;48.406;9.984;2022-10-16T19:29:00;18.60;93.70
17994;DHT22;9122;48.406;9.984;2022-10-16T19:31:45;18.60;93.90
17994;DHT22;9122;48.406;9.984;2022-10-16T19:34:29;18.60;93.80
17994;DHT22;9122;48.406;9.984;2022-10-16T19:37:14;18.60;93.80